createdAt,value
2022-10-11T00:00:38.587Z,38.80
2022-10-11T00:03:55.700Z,44.00
2022-10-11T00:06:51.954Z,43.70
2022-10-11T00:09:23.982Z,49.70
2022-10-11T00:11:57.642Z,46.30
2022-10-11T00:14:30.151Z,42.90
2022-10-11T00:17:29.046Z,38.40
2022-10-11T00:20:01.104Z,38.90
2022-10-11T00:22:33.739Z,46.80
2022-10-11T00:25:09.467Z,36.40
2022-10-11T00:27:41.779Z,35.70
2022-10-11T00:30:17.072Z,30.00
2022-10-11T00:32:50.902Z,35.90
2022-10-11T00:35:51.182Z,37.20
2022-10-11T00:38:25.668Z,32.60
2022-10-11T00:41:03.050Z,30.80
2022-10-11T00:43:37.377Z,32.80
2022-10-11T00:46:27.987Z,30.80
2022-10-11T00:49:08.771Z,26.40
2022-10-11T00:51:49.021Z,27.80
2022-10-11T00:54:23.317Z,26.50
2022-10-11T00:57:21.026Z,25.90
2022-10-11T00:59:56.159Z,26.60
2022-10-11T01:02:30.372Z,25.60
2022-10-11T01:05:29.704Z,27.20
2022-10-11T01:08:03.560Z,25.20
2022-10-11T01:10:37.902Z,26.80
2022-10-11T01:16:18.999Z,26.70
2022-10-11T01:21:56.841Z,31.30
2022-10-11T01:28:02.971Z,27.50
2022-10-11T01:30:35.945Z,20.40
2022-10-11T01:33:19.867Z,18.10
2022-10-11T01:39:24.000Z,21.20
2022-10-11T01:42:22.129Z,13.90
2022-10-11T01:44:54.464Z,22.40
2022-10-11T01:47:28.185Z,15.00
2022-10-11T01:50:05.596Z,15.30
2022-10-11T01:52:41.543Z,14.00
2022-10-11T01:55:47.813Z,13.50
2022-10-11T01:58:51.160Z,11.60
2022-10-11T02:01:41.109Z,11.40
2022-10-11T02:04:18.994Z,11.30
2022-10-11T02:07:25.393Z,16.00
2022-10-11T02:10:03.047Z,11.00
2022-10-11T02:12:41.361Z,10.70
2022-10-11T02:15:15.398Z,9.10
2022-10-11T02:17:58.319Z,9.80
2022-10-11T02:20:32.260Z,11.10
2022-10-11T02:23:29.810Z,7.90
2022-10-11T02:26:07.187Z,11.00
2022-10-11T02:29:05.009Z,10.10
2022-10-11T02:31:40.475Z,9.00
2022-10-11T02:34:16.018Z,9.60
2022-10-11T02:36:55.284Z,10.00
2022-10-11T02:39:30.815Z,8.00
2022-10-11T02:42:06.575Z,10.00
2022-10-11T02:44:44.225Z,9.30
2022-10-11T02:47:22.207Z,10.60
2022-10-11T02:49:55.817Z,11.00
2022-10-11T02:52:28.228Z,9.20
2022-10-11T02:55:01.868Z,8.90
2022-10-11T02:57:33.881Z,12.70
2022-10-11T03:00:06.947Z,10.80
2022-10-11T03:02:38.925Z,7.90
2022-10-11T03:05:11.501Z,8.20
2022-10-11T03:07:43.802Z,8.30
2022-10-11T03:10:20.046Z,10.00
2022-10-11T03:12:57.565Z,9.00
2022-10-11T03:15:31.191Z,11.30
2022-10-11T03:18:03.095Z,7.90
2022-10-11T03:20:39.539Z,8.40
2022-10-11T03:23:41.196Z,7.70
2022-10-11T03:26:18.953Z,8.60
2022-10-11T03:28:50.888Z,7.50
2022-10-11T03:34:48.758Z,6.80
2022-10-11T03:37:21.994Z,9.50
2022-10-11T03:39:55.858Z,7.10
2022-10-11T03:42:29.931Z,7.00
2022-10-11T03:45:28.473Z,6.70
2022-10-11T03:51:22.927Z,7.20
2022-10-11T03:53:55.442Z,6.80
2022-10-11T03:56:50.791Z,7.50
2022-10-11T03:59:25.142Z,8.00
2022-10-11T04:02:01.282Z,8.10
2022-10-11T04:04:41.597Z,7.70
2022-10-11T04:07:19.206Z,7.60
2022-10-11T04:10:20.100Z,17.10
2022-10-11T04:12:57.233Z,12.50
2022-10-11T04:15:31.188Z,7.90
2022-10-11T04:18:09.255Z,8.00
2022-10-11T04:20:44.222Z,7.00
2022-10-11T04:23:21.206Z,9.70
2022-10-11T04:25:57.235Z,12.00
2022-10-11T04:28:35.292Z,8.80
2022-10-11T04:31:14.229Z,9.80
2022-10-11T04:33:49.260Z,9.00
2022-10-11T04:36:25.555Z,10.30
2022-10-11T04:39:05.266Z,7.90
2022-10-11T04:41:39.804Z,8.60
2022-10-11T04:44:15.270Z,8.70
2022-10-11T04:46:49.649Z,8.80
2022-10-11T04:49:53.316Z,9.20
2022-10-11T04:52:31.247Z,8.10
2022-10-11T04:55:10.218Z,8.10
2022-10-11T04:57:43.248Z,10.50
2022-10-11T05:07:41.945Z,9.60
2022-10-11T05:10:18.706Z,11.40
2022-10-11T05:12:53.053Z,14.50
2022-10-11T05:15:31.788Z,12.10
2022-10-11T05:18:05.993Z,10.20
2022-10-11T05:20:42.548Z,12.30
2022-10-11T05:23:22.612Z,12.00
2022-10-11T05:26:00.701Z,11.90
2022-10-11T05:29:04.808Z,13.60
2022-10-11T05:31:43.709Z,15.80
2022-10-11T05:34:18.431Z,13.70
2022-10-11T05:36:59.185Z,13.00
2022-10-11T05:39:35.165Z,13.00
2022-10-11T05:42:12.440Z,12.50
2022-10-11T05:44:49.040Z,10.70
2022-10-11T05:47:25.558Z,12.50
2022-10-11T05:50:01.125Z,12.20
2022-10-11T05:53:02.749Z,14.00
2022-10-11T05:55:43.765Z,15.50
2022-10-11T05:58:19.893Z,13.90
2022-10-11T06:01:19.365Z,13.00
2022-10-11T06:04:00.963Z,12.50
2022-10-11T06:06:38.523Z,16.40
2022-10-11T06:09:15.373Z,15.30
2022-10-11T06:11:53.685Z,16.40
2022-10-11T06:14:54.630Z,17.60
2022-10-11T06:17:34.855Z,15.30
2022-10-11T06:20:14.162Z,15.00
2022-10-11T06:22:55.851Z,14.50
2022-10-11T06:25:29.588Z,14.20
2022-10-11T06:28:06.315Z,15.30
2022-10-11T06:30:43.806Z,14.10
2022-10-11T06:33:18.914Z,14.20
2022-10-11T06:35:53.233Z,15.10
2022-10-11T06:38:26.493Z,15.50
2022-10-11T06:41:02.078Z,13.00
2022-10-11T06:43:38.251Z,15.60
2022-10-11T06:46:13.934Z,14.30
2022-10-11T06:49:16.300Z,15.20
2022-10-11T06:51:55.812Z,15.30
2022-10-11T06:55:03.725Z,15.00
2022-10-11T06:57:40.084Z,15.40
2022-10-11T07:00:23.299Z,14.60
2022-10-11T07:02:59.266Z,13.40
2022-10-11T07:05:35.992Z,14.00
2022-10-11T07:08:11.993Z,14.30
2022-10-11T07:10:46.749Z,14.90
2022-10-11T07:13:26.261Z,17.60
2022-10-11T07:16:15.863Z,17.90
2022-10-11T07:19:00.158Z,19.30
2022-10-11T07:21:36.973Z,19.80
2022-10-11T07:24:11.812Z,19.30
2022-10-11T07:26:45.688Z,18.90
2022-10-11T07:29:19.530Z,18.20
2022-10-11T07:35:24.203Z,16.00
2022-10-11T07:38:03.784Z,16.30
2022-10-11T07:40:47.913Z,17.70
2022-10-11T07:43:27.639Z,16.00
2022-10-11T07:46:07.283Z,15.80
2022-10-11T07:48:43.036Z,17.00
2022-10-11T07:51:21.392Z,15.10
2022-10-11T07:53:56.827Z,13.70
2022-10-11T07:56:32.066Z,14.10
2022-10-11T07:59:10.012Z,14.80
2022-10-11T08:01:43.250Z,14.50
2022-10-11T08:04:16.281Z,14.20
2022-10-11T08:06:53.320Z,14.00
2022-10-11T08:09:28.305Z,14.90
2022-10-11T08:12:03.883Z,14.60
2022-10-11T08:14:38.832Z,15.50
2022-10-11T08:17:13.752Z,14.70
2022-10-11T08:19:50.080Z,13.50
2022-10-11T08:22:27.528Z,13.80
2022-10-11T08:25:05.589Z,14.70
2022-10-11T08:27:41.351Z,15.50
2022-10-11T08:30:17.776Z,13.90
2022-10-11T08:32:54.351Z,14.60
2022-10-11T08:35:32.598Z,15.60
2022-10-11T08:38:13.370Z,13.00
2022-10-11T08:40:59.158Z,13.40
2022-10-11T08:43:57.487Z,14.20
2022-10-11T08:46:39.824Z,16.20
2022-10-11T08:49:19.163Z,16.90
2022-10-11T08:52:25.123Z,15.20
2022-10-11T08:55:04.628Z,14.10
2022-10-11T08:57:39.881Z,16.20
2022-10-11T09:00:47.350Z,14.90
2022-10-11T09:03:37.579Z,17.40
2022-10-11T09:06:49.719Z,14.60
2022-10-11T09:10:06.669Z,15.70
2022-10-11T09:12:55.844Z,14.90
2022-10-11T09:15:51.194Z,14.10
2022-10-11T09:18:58.394Z,15.30
2022-10-11T09:21:42.176Z,16.00
2022-10-11T09:24:47.687Z,17.90
2022-10-11T09:27:57.799Z,16.60
2022-10-11T09:30:27.473Z,16.90
2022-10-11T09:33:12.573Z,15.90
2022-10-11T09:35:51.082Z,15.50
2022-10-11T09:38:40.699Z,15.60
2022-10-11T09:41:21.421Z,15.10
2022-10-11T09:43:57.021Z,14.40
2022-10-11T09:46:38.084Z,15.80
2022-10-11T09:49:13.861Z,15.70
2022-10-11T09:51:51.136Z,15.30
2022-10-11T09:54:32.915Z,14.50
2022-10-11T09:57:19.600Z,14.30
2022-10-11T10:00:05.653Z,14.90
2022-10-11T10:02:44.153Z,14.90
2022-10-11T10:05:21.876Z,15.70
2022-10-11T10:08:22.616Z,14.50
2022-10-11T10:11:02.913Z,15.40
2022-10-11T10:13:43.711Z,15.70
2022-10-11T10:16:28.166Z,15.80
2022-10-11T10:19:01.890Z,14.80
2022-10-11T10:21:36.351Z,13.60
2022-10-11T10:24:10.971Z,11.30
2022-10-11T10:26:42.799Z,11.30
2022-10-11T10:29:21.494Z,11.60
2022-10-11T10:32:14.730Z,10.10
2022-10-11T10:34:56.691Z,11.70
2022-10-11T10:37:30.909Z,11.20
2022-10-11T10:40:06.881Z,11.40
2022-10-11T10:42:39.171Z,12.60
2022-10-11T10:45:21.430Z,11.80
2022-10-11T10:48:04.987Z,10.40
2022-10-11T10:50:47.657Z,10.80
2022-10-11T10:53:25.582Z,10.90
2022-10-11T10:56:04.084Z,11.80
2022-10-11T10:58:54.930Z,11.00
2022-10-11T11:01:31.668Z,12.10
2022-10-11T11:04:17.771Z,11.10
2022-10-11T11:06:53.457Z,10.00
2022-10-11T11:09:33.677Z,9.80
2022-10-11T11:12:15.547Z,9.40
2022-10-11T11:14:53.917Z,9.30
2022-10-11T11:17:31.559Z,10.60
2022-10-11T11:20:16.486Z,11.70
2022-10-11T11:22:53.977Z,12.20
2022-10-11T11:25:35.587Z,12.80
2022-10-11T11:28:17.561Z,11.80
2022-10-11T11:30:54.782Z,12.70
2022-10-11T11:33:36.030Z,12.40
2022-10-11T11:36:12.750Z,15.60
2022-10-11T11:38:48.240Z,13.20
2022-10-11T11:41:24.604Z,10.40
2022-10-11T11:44:04.253Z,10.70
2022-10-11T11:46:38.885Z,10.90
2022-10-11T11:49:16.637Z,10.60
2022-10-11T11:51:49.797Z,9.80
2022-10-11T11:54:30.708Z,11.00
2022-10-11T11:57:08.628Z,9.50
2022-10-11T11:59:45.905Z,9.60
2022-10-11T12:02:36.815Z,7.70
2022-10-11T12:05:10.217Z,7.50
2022-10-11T12:07:53.504Z,8.70
2022-10-11T12:10:33.143Z,7.60
2022-10-11T12:13:18.723Z,7.10
2022-10-11T12:16:13.622Z,7.10
2022-10-11T12:18:55.638Z,6.30
2022-10-11T12:21:32.112Z,6.70
2022-10-11T12:24:12.857Z,10.00
2022-10-11T12:27:10.420Z,5.80
2022-10-11T12:29:50.668Z,5.80
2022-10-11T12:32:54.911Z,6.90
2022-10-11T12:35:57.335Z,7.80
2022-10-11T12:38:33.844Z,5.10
2022-10-11T12:41:36.562Z,5.90
2022-10-11T12:44:36.361Z,6.60
2022-10-11T12:47:19.323Z,5.90
2022-10-11T12:50:05.136Z,5.40
2022-10-11T12:52:44.299Z,4.50
2022-10-11T12:55:32.460Z,5.80
2022-10-11T12:58:28.210Z,5.90
2022-10-11T13:04:22.211Z,6.00
2022-10-11T13:07:01.111Z,5.10
2022-10-11T13:09:39.897Z,5.30
2022-10-11T13:12:19.553Z,5.30
2022-10-11T13:15:07.301Z,6.80
2022-10-11T13:17:44.203Z,5.10
2022-10-11T13:20:25.262Z,5.10
2022-10-11T13:26:44.265Z,4.90
2022-10-11T13:29:20.146Z,4.90
2022-10-11T13:31:54.741Z,4.30
2022-10-11T13:34:29.557Z,7.40
2022-10-11T13:37:18.815Z,8.00
2022-10-11T13:39:51.396Z,9.00
2022-10-11T13:42:27.058Z,6.70
2022-10-11T13:45:04.316Z,6.40
2022-10-11T13:47:36.191Z,7.20
2022-10-11T13:50:25.091Z,8.70
2022-10-11T13:53:00.027Z,5.70
2022-10-11T13:55:34.973Z,6.60
2022-10-11T13:58:18.568Z,7.80
2022-10-11T14:01:00.163Z,6.70
2022-10-11T14:03:40.441Z,6.90
2022-10-11T14:06:12.569Z,5.70
2022-10-11T14:08:48.232Z,7.40
2022-10-11T14:11:49.796Z,4.60
2022-10-11T14:14:47.123Z,5.60
2022-10-11T14:17:21.001Z,8.70
2022-10-11T14:20:11.594Z,5.20
2022-10-11T14:22:43.758Z,5.90
2022-10-11T14:25:16.018Z,4.10
2022-10-11T14:27:49.821Z,5.50
2022-10-11T14:30:26.106Z,4.50
2022-10-11T14:33:00.983Z,5.70
2022-10-11T14:35:37.240Z,8.40
2022-10-11T14:38:10.522Z,5.70
2022-10-11T14:40:42.378Z,4.20
2022-10-11T14:43:14.241Z,9.00
2022-10-11T14:45:46.223Z,8.20
2022-10-11T14:48:31.418Z,7.70
2022-10-11T14:51:10.793Z,7.30
2022-10-11T14:53:46.407Z,8.70
2022-10-11T14:56:21.515Z,9.10
2022-10-11T14:58:53.967Z,13.90
2022-10-11T15:01:26.702Z,17.00
2022-10-11T15:03:58.836Z,11.20
2022-10-11T15:06:34.392Z,8.70
2022-10-11T15:09:08.581Z,8.60
2022-10-11T15:11:40.937Z,6.80
2022-10-11T15:14:12.789Z,7.80
2022-10-11T15:16:45.046Z,9.80
2022-10-11T15:19:19.395Z,7.50
2022-10-11T15:21:51.946Z,6.60
2022-10-11T15:24:23.978Z,7.10
2022-10-11T15:26:55.814Z,7.10
2022-10-11T15:29:27.555Z,7.80
2022-10-11T15:31:59.407Z,6.50
2022-10-11T15:34:31.139Z,10.50
2022-10-11T15:37:03.165Z,7.90
2022-10-11T15:39:34.986Z,11.60
2022-10-11T15:42:08.109Z,7.30
2022-10-11T15:44:40.178Z,9.10
2022-10-11T15:47:13.833Z,7.10
2022-10-11T15:49:45.969Z,8.30
2022-10-11T15:52:17.906Z,7.70
2022-10-11T15:54:49.955Z,7.90
2022-10-11T15:57:23.255Z,13.10
2022-10-11T15:59:55.034Z,7.90
2022-10-11T16:02:27.210Z,8.40
2022-10-11T16:04:59.174Z,12.10
2022-10-11T16:07:31.443Z,9.70
2022-10-11T16:10:03.851Z,8.00
2022-10-11T16:12:36.222Z,8.00
2022-10-11T16:15:10.358Z,8.00
2022-10-11T16:17:42.352Z,6.40
2022-10-11T16:20:15.748Z,6.30
2022-10-11T16:22:48.230Z,7.00
2022-10-11T16:25:20.510Z,11.00
2022-10-11T16:27:52.895Z,8.00
2022-10-11T16:30:24.614Z,6.50
2022-10-11T16:32:56.600Z,7.30
2022-10-11T16:35:32.331Z,8.90
2022-10-11T16:38:04.673Z,7.90
2022-10-11T16:40:37.844Z,9.30
2022-10-11T16:43:10.963Z,8.50
2022-10-11T16:45:43.012Z,10.90
2022-10-11T16:48:14.900Z,16.30
2022-10-11T16:50:46.653Z,12.00
2022-10-11T16:53:21.729Z,15.70
2022-10-11T16:55:54.191Z,16.20
2022-10-11T16:58:26.325Z,18.00
2022-10-11T17:00:58.948Z,14.20
2022-10-11T17:03:31.325Z,21.20
2022-10-11T17:06:05.276Z,20.40
2022-10-11T17:08:38.864Z,17.20
2022-10-11T17:11:12.885Z,15.20
2022-10-11T17:13:46.250Z,21.30
2022-10-11T17:16:20.215Z,14.40
2022-10-11T17:18:53.111Z,14.80
2022-10-11T17:21:26.870Z,15.90
2022-10-11T17:24:04.332Z,23.10
2022-10-11T17:26:37.881Z,28.50
2022-10-11T17:29:14.620Z,29.70
2022-10-11T17:31:49.332Z,36.70
2022-10-11T17:34:22.477Z,33.40
2022-10-11T17:36:54.921Z,36.60
2022-10-11T17:39:28.208Z,32.90
2022-10-11T17:42:05.982Z,31.90
2022-10-11T17:44:39.726Z,36.80
2022-10-11T17:47:13.908Z,33.70
2022-10-11T17:49:47.583Z,30.60
2022-10-11T17:52:21.855Z,29.10
2022-10-11T17:54:54.886Z,29.70
2022-10-11T17:57:28.900Z,30.00
2022-10-11T18:07:13.002Z,32.20
2022-10-11T18:09:46.822Z,31.10
2022-10-11T18:12:19.110Z,33.90
2022-10-11T18:14:53.061Z,37.10
2022-10-11T18:17:26.764Z,38.30
2022-10-11T18:19:58.653Z,42.30
2022-10-11T18:22:33.212Z,49.50
2022-10-11T18:25:06.514Z,71.00
2022-10-11T18:27:38.588Z,76.40
2022-10-11T18:30:13.127Z,84.20
2022-10-11T18:32:48.030Z,128.00
2022-10-11T18:35:22.621Z,120.60
2022-10-11T18:38:00.105Z,142.00
2022-10-11T18:40:41.259Z,168.80
2022-10-11T18:43:17.948Z,186.70
2022-10-11T18:45:50.594Z,138.40
2022-10-11T18:48:24.139Z,126.50
2022-10-11T18:51:08.508Z,118.60
2022-10-11T18:53:41.192Z,110.80
2022-10-11T18:56:17.622Z,131.50
2022-10-11T18:58:51.323Z,123.90
2022-10-11T19:01:26.766Z,111.60
2022-10-11T19:04:03.638Z,117.20
2022-10-11T19:06:37.782Z,125.10
2022-10-11T19:09:12.880Z,119.20
2022-10-11T19:11:45.522Z,109.50
2022-10-11T19:14:22.148Z,104.70
2022-10-11T19:16:56.296Z,88.90
2022-10-11T19:19:31.001Z,98.10
2022-10-11T19:22:07.252Z,103.40
2022-10-11T19:24:40.262Z,120.40
2022-10-11T19:27:14.806Z,121.20
2022-10-11T19:29:48.758Z,113.10
2022-10-11T19:32:30.432Z,119.00
2022-10-11T19:35:04.298Z,108.30
2022-10-11T19:37:36.346Z,110.20
2022-10-11T19:40:12.869Z,116.80
2022-10-11T19:42:44.729Z,113.30
2022-10-11T19:45:17.888Z,117.40
2022-10-11T19:47:52.477Z,118.60
2022-10-11T19:50:28.312Z,130.30
2022-10-11T19:53:01.102Z,120.50
2022-10-11T19:55:36.177Z,121.30
2022-10-11T19:58:09.107Z,132.20
2022-10-11T20:00:46.507Z,142.80
2022-10-11T20:03:23.920Z,161.10
2022-10-11T20:05:57.677Z,538.80
2022-10-11T20:08:34.236Z,510.20
2022-10-11T20:11:11.185Z,392.60
2022-10-11T20:13:47.858Z,346.20
2022-10-11T20:16:28.101Z,256.00
2022-10-11T20:19:02.656Z,257.90
2022-10-11T20:21:37.842Z,261.30
2022-10-11T20:24:10.386Z,332.50
2022-10-11T20:26:44.066Z,340.20
2022-10-11T20:29:17.290Z,411.00
2022-10-11T20:31:51.043Z,402.60
2022-10-11T20:34:23.716Z,361.10
2022-10-11T20:36:57.306Z,327.50
2022-10-11T20:39:30.949Z,489.50
2022-10-11T20:42:04.983Z,392.80
2022-10-11T20:44:39.949Z,304.30
2022-10-11T20:47:12.954Z,254.80
2022-10-11T20:49:45.552Z,293.50
2022-10-11T20:52:19.504Z,263.80
2022-10-11T20:54:52.341Z,277.90
2022-10-11T20:57:28.883Z,297.10
2022-10-11T21:00:05.165Z,285.70
2022-10-11T21:02:40.388Z,212.80
2022-10-11T21:05:12.956Z,192.00
2022-10-11T21:07:46.747Z,146.50
2022-10-11T21:10:19.636Z,134.30
2022-10-11T21:12:53.231Z,147.60
2022-10-11T21:15:25.600Z,212.70
2022-10-11T21:17:57.438Z,228.00
2022-10-11T21:20:30.569Z,211.90
2022-10-11T21:23:05.698Z,164.90
2022-10-11T21:25:39.971Z,134.50
2022-10-11T21:28:13.102Z,132.90
2022-10-11T21:30:46.975Z,146.00
2022-10-11T21:33:18.840Z,144.60
2022-10-11T21:35:51.469Z,137.90
2022-10-11T21:38:25.696Z,163.00
2022-10-11T21:40:58.728Z,177.20
2022-10-11T21:43:34.495Z,171.10
2022-10-11T21:46:13.140Z,158.80
2022-10-11T21:48:50.331Z,144.80
2022-10-11T21:51:25.693Z,138.80
2022-10-11T21:54:00.339Z,130.50
2022-10-11T21:56:33.993Z,138.40
2022-10-11T21:59:11.041Z,158.20
2022-10-11T22:01:45.901Z,161.30
2022-10-11T22:04:18.775Z,160.70
2022-10-11T22:06:51.746Z,199.90
2022-10-11T22:09:24.470Z,166.00
2022-10-11T22:11:56.703Z,139.30
2022-10-11T22:14:29.915Z,154.90
2022-10-11T22:17:02.891Z,155.30
2022-10-11T22:19:38.666Z,165.20
2022-10-11T22:22:10.729Z,168.70
2022-10-11T22:24:43.640Z,185.20
2022-10-11T22:27:18.334Z,191.30
2022-10-11T22:29:51.326Z,189.90
2022-10-11T22:32:23.587Z,221.10
2022-10-11T22:34:56.480Z,211.30
2022-10-11T22:37:28.710Z,190.80
2022-10-11T22:40:01.555Z,146.00
2022-10-11T22:42:34.207Z,133.00
2022-10-11T22:45:08.829Z,155.20
2022-10-11T22:47:41.105Z,163.30
2022-10-11T22:50:14.701Z,155.60
2022-10-11T22:52:47.197Z,159.10
2022-10-11T22:55:20.229Z,151.80
2022-10-11T22:57:52.912Z,149.70
2022-10-11T23:00:26.175Z,151.50
2022-10-11T23:02:58.381Z,152.40
2022-10-11T23:05:31.201Z,155.50
2022-10-11T23:08:04.330Z,158.50
2022-10-11T23:10:37.158Z,142.40
2022-10-11T23:13:09.712Z,139.30
2022-10-11T23:15:44.194Z,144.50
2022-10-11T23:18:18.774Z,160.60
2022-10-11T23:20:51.078Z,168.70
2022-10-11T23:23:23.870Z,144.20
2022-10-11T23:26:07.816Z,136.20
2022-10-11T23:28:40.913Z,124.50
2022-10-11T23:31:16.549Z,113.50
2022-10-11T23:33:49.493Z,109.80
2022-10-11T23:36:23.508Z,110.40
2022-10-11T23:38:57.321Z,113.50
2022-10-11T23:41:31.146Z,117.40
2022-10-11T23:44:03.929Z,109.80
2022-10-11T23:46:37.867Z,114.50
2022-10-11T23:49:10.459Z,119.00
2022-10-11T23:51:43.001Z,114.00
2022-10-11T23:54:15.045Z,108.10
2022-10-11T23:56:49.877Z,107.30
2022-10-11T23:59:23.659Z,100.40
